sensor_id;sensor_type;location;lat;lon;timestamp;P1;durP1;ratioP1;P2;durP2;ratioP2
25609;SDS011;13479;49.044;8.716;2022-12-07T05:00:22;17.43;;;10.10;;
25609;SDS011;13479;49.044;8.716;2022-12-07T05:02:47;17.80;;;9.47;;
25609;SDS011;13479;49.044;8.716;2022-12-07T05:05:12;19.03;;;10.13;;
25609;SDS011;13479;49.044;8.716;2022-12-07T05:07:38;17.00;;;10.43;;
25609;SDS011;13479;49.044;8.716;2022-12-07T05:10:03;16.00;;;9.60;;
25609;SDS011;13479;49.044;8.716;2022-12-07T05:12:29;19.93;;;11.00;;
25609;SDS011;13479;49.044;8.716;2022-12-07T05:14:55;21.77;;;11.40;;
25609;SDS011;13479;49.044;8.716;2022-12-07T05:17:20;19.60;;;10.93;;
25609;SDS011;13479;49.044;8.716;2022-12-07T05:19:45;17.53;;;9.93;;
25609;SDS011;13479;49.044;8.716;2022-12-07T05:22:10;18.57;;;10.10;;
25609;SDS011;13479;49.044;8.716;2022-12-07T05:24:36;17.20;;;9.83;;
25609;SDS011;13479;49.044;8.716;2022-12-07T05:27:01;19.00;;;10.60;;
25609;SDS011;13479;49.044;8.716;2022-12-07T05:29:26;17.03;;;9.53;;
25609;SDS011;13479;49.044;8.716;2022-12-07T05:31:51;17.40;;;9.90;;
25609;SDS011;13479;49.044;8.716;2022-12-07T05:34:16;18.20;;;9.70;;
25609;SDS011;13479;49.044;8.716;2022-12-07T05:36:42;18.23;;;9.87;;
25609;SDS011;13479;49.044;8.716;2022-12-07T05:39:07;16.77;;;9.90;;
25609;SDS011;13479;49.044;8.716;2022-12-07T05:41:33;16.53;;;9.30;;
25609;SDS011;13479;49.044;8.716;2022-12-07T05:44:17;17.93;;;10.70;;
25609;SDS011;13479;49.044;8.716;2022-12-07T05:46:42;15.67;;;9.53;;
25609;SDS011;13479;49.044;8.716;2022-12-07T05:49:07;16.40;;;10.20;;
25609;SDS011;13479;49.044;8.716;2022-12-07T05:51:33;15.67;;;9.80;;
25609;SDS011;13479;49.044;8.716;2022-12-07T05:53:58;16.80;;;9.90;;
25609;SDS011;13479;49.044;8.716;2022-12-07T05:56:23;17.57;;;10.50;;
25609;SDS011;13479;49.044;8.716;2022-12-07T05:58:51;16.30;;;9.63;;
25609;SDS011;13479;49.044;8.716;2022-12-07T06:01:35;16.77;;;9.70;;
25609;SDS011;13479;49.044;8.716;2022-12-07T06:04:00;15.27;;;8.77;;
25609;SDS011;13479;49.044;8.716;2022-12-07T06:06:25;14.30;;;8.73;;
25609;SDS011;13479;49.044;8.716;2022-12-07T06:08:50;14.87;;;8.93;;
25609;SDS011;13479;49.044;8.716;2022-12-07T06:11:16;14.73;;;9.00;;
25609;SDS011;13479;49.044;8.716;2022-12-07T06:14:00;13.77;;;8.50;;
25609;SDS011;13479;49.044;8.716;2022-12-07T06:16:25;16.30;;;8.60;;
25609;SDS011;13479;49.044;8.716;2022-12-07T06:18:50;13.23;;;7.70;;
25609;SDS011;13479;49.044;8.716;2022-12-07T06:21:15;13.10;;;8.20;;
25609;SDS011;13479;49.044;8.716;2022-12-07T06:23:41;15.80;;;9.07;;
25609;SDS011;13479;49.044;8.716;2022-12-07T06:26:06;14.97;;;8.60;;
25609;SDS011;13479;49.044;8.716;2022-12-07T06:28:31;13.80;;;8.30;;
25609;SDS011;13479;49.044;8.716;2022-12-07T06:31:00;15.00;;;8.20;;
25609;SDS011;13479;49.044;8.716;2022-12-07T06:33:27;15.67;;;8.70;;
25609;SDS011;13479;49.044;8.716;2022-12-07T06:35:53;12.63;;;7.77;;
25609;SDS011;13479;49.044;8.716;2022-12-07T06:38:18;13.33;;;7.83;;
25609;SDS011;13479;49.044;8.716;2022-12-07T06:40:44;12.77;;;8.20;;
25609;SDS011;13479;49.044;8.716;2022-12-07T06:43:09;17.03;;;9.43;;
25609;SDS011;13479;49.044;8.716;2022-12-07T06:45:34;14.23;;;8.23;;
25609;SDS011;13479;49.044;8.716;2022-12-07T06:48:00;15.83;;;8.33;;
25609;SDS011;13479;49.044;8.716;2022-12-07T06:50:25;19.90;;;8.57;;
25609;SDS011;13479;49.044;8.716;2022-12-07T06:52:51;16.50;;;8.67;;
25609;SDS011;13479;49.044;8.716;2022-12-07T06:55:16;15.57;;;8.40;;
25609;SDS011;13479;49.044;8.716;2022-12-07T06:57:42;14.00;;;7.80;;
25609;SDS011;13479;49.044;8.716;2022-12-07T07:00:07;13.00;;;7.33;;
25609;SDS011;13479;49.044;8.716;2022-12-07T07:02:33;12.67;;;7.60;;
25609;SDS011;13479;49.044;8.716;2022-12-07T07:04:58;13.57;;;6.83;;
25609;SDS011;13479;49.044;8.716;2022-12-07T07:07:24;13.00;;;7.30;;
25609;SDS011;13479;49.044;8.716;2022-12-07T07:09:49;14.20;;;7.50;;
25609;SDS011;13479;49.044;8.716;2022-12-07T07:12:14;14.63;;;8.13;;
25609;SDS011;13479;49.044;8.716;2022-12-07T07:14:39;16.10;;;8.10;;
25609;SDS011;13479;49.044;8.716;2022-12-07T07:17:05;13.73;;;7.67;;
25609;SDS011;13479;49.044;8.716;2022-12-07T07:19:30;12.63;;;7.30;;
25609;SDS011;13479;49.044;8.716;2022-12-07T07:21:55;15.40;;;7.83;;
25609;SDS011;13479;49.044;8.716;2022-12-07T07:24:21;11.90;;;6.67;;
25609;SDS011;13479;49.044;8.716;2022-12-07T07:26:46;10.87;;;6.70;;
25609;SDS011;13479;49.044;8.716;2022-12-07T07:29:11;11.93;;;7.07;;
25609;SDS011;13479;49.044;8.716;2022-12-07T07:31:36;13.00;;;7.40;;
25609;SDS011;13479;49.044;8.716;2022-12-07T07:34:02;13.40;;;7.40;;
25609;SDS011;13479;49.044;8.716;2022-12-07T07:36:27;12.50;;;7.00;;
25609;SDS011;13479;49.044;8.716;2022-12-07T07:38:52;12.23;;;6.53;;
25609;SDS011;13479;49.044;8.716;2022-12-07T07:41:18;13.03;;;7.53;;
25609;SDS011;13479;49.044;8.716;2022-12-07T07:43:43;12.93;;;6.93;;
25609;SDS011;13479;49.044;8.716;2022-12-07T07:46:08;10.00;;;6.00;;
25609;SDS011;13479;49.044;8.716;2022-12-07T07:48:33;10.80;;;6.17;;
25609;SDS011;13479;49.044;8.716;2022-12-07T07:50:58;12.00;;;6.63;;
25609;SDS011;13479;49.044;8.716;2022-12-07T07:53:24;15.47;;;8.07;;
25609;SDS011;13479;49.044;8.716;2022-12-07T07:55:50;11.17;;;6.70;;
25609;SDS011;13479;49.044;8.716;2022-12-07T07:58:17;11.23;;;6.47;;
25609;SDS011;13479;49.044;8.716;2022-12-07T08:00:42;11.77;;;7.00;;
25609;SDS011;13479;49.044;8.716;2022-12-07T08:03:07;10.37;;;5.90;;
25609;SDS011;13479;49.044;8.716;2022-12-07T08:05:33;11.63;;;6.20;;
25609;SDS011;13479;49.044;8.716;2022-12-07T08:07:58;12.23;;;6.27;;
25609;SDS011;13479;49.044;8.716;2022-12-07T08:10:24;9.90;;;5.10;;
25609;SDS011;13479;49.044;8.716;2022-12-07T08:12:49;11.03;;;5.70;;
25609;SDS011;13479;49.044;8.716;2022-12-07T08:15:33;9.63;;;5.40;;
25609;SDS011;13479;49.044;8.716;2022-12-07T08:18:02;10.43;;;5.80;;
25609;SDS011;13479;49.044;8.716;2022-12-07T08:20:29;11.43;;;5.10;;
25609;SDS011;13479;49.044;8.716;2022-12-07T08:22:55;10.53;;;6.00;;
25609;SDS011;13479;49.044;8.716;2022-12-07T08:25:21;10.57;;;5.70;;
25609;SDS011;13479;49.044;8.716;2022-12-07T08:27:50;10.63;;;5.73;;
25609;SDS011;13479;49.044;8.716;2022-12-07T08:30:16;9.97;;;5.87;;
25609;SDS011;13479;49.044;8.716;2022-12-07T08:32:41;11.63;;;5.40;;
25609;SDS011;13479;49.044;8.716;2022-12-07T08:35:09;10.00;;;5.60;;
25609;SDS011;13479;49.044;8.716;2022-12-07T08:37:34;10.10;;;5.60;;
25609;SDS011;13479;49.044;8.716;2022-12-07T08:39:59;9.87;;;5.77;;
25609;SDS011;13479;49.044;8.716;2022-12-07T08:42:24;8.80;;;5.50;;
25609;SDS011;13479;49.044;8.716;2022-12-07T08:44:54;10.53;;;5.70;;
25609;SDS011;13479;49.044;8.716;2022-12-07T08:47:19;11.37;;;5.50;;
25609;SDS011;13479;49.044;8.716;2022-12-07T08:49:45;12.63;;;5.73;;
25609;SDS011;13479;49.044;8.716;2022-12-07T08:52:15;11.43;;;6.30;;
25609;SDS011;13479;49.044;8.716;2022-12-07T08:54:41;10.23;;;5.50;;
25609;SDS011;13479;49.044;8.716;2022-12-07T08:57:07;9.90;;;5.93;;
25609;SDS011;13479;49.044;8.716;2022-12-07T08:59:34;10.83;;;5.90;;
25609;SDS011;13479;49.044;8.716;2022-12-07T09:02:02;9.67;;;5.63;;
25609;SDS011;13479;49.044;8.716;2022-12-07T09:04:28;10.13;;;5.73;;
25609;SDS011;13479;49.044;8.716;2022-12-07T09:06:53;9.63;;;4.97;;
25609;SDS011;13479;49.044;8.716;2022-12-07T09:09:19;8.87;;;5.00;;
25609;SDS011;13479;49.044;8.716;2022-12-07T09:11:45;9.47;;;5.37;;
25609;SDS011;13479;49.044;8.716;2022-12-07T09:14:10;9.17;;;5.50;;
25609;SDS011;13479;49.044;8.716;2022-12-07T09:16:37;9.83;;;5.53;;
25609;SDS011;13479;49.044;8.716;2022-12-07T09:19:02;8.70;;;4.90;;
25609;SDS011;13479;49.044;8.716;2022-12-07T09:21:27;7.70;;;4.57;;
25609;SDS011;13479;49.044;8.716;2022-12-07T09:23:53;9.67;;;5.80;;
25609;SDS011;13479;49.044;8.716;2022-12-07T09:26:18;9.97;;;5.57;;
25609;SDS011;13479;49.044;8.716;2022-12-07T09:28:43;10.13;;;6.37;;
25609;SDS011;13479;49.044;8.716;2022-12-07T09:31:08;8.40;;;4.90;;
25609;SDS011;13479;49.044;8.716;2022-12-07T09:33:34;10.63;;;5.40;;
25609;SDS011;13479;49.044;8.716;2022-12-07T09:35:59;10.37;;;5.77;;
25609;SDS011;13479;49.044;8.716;2022-12-07T09:38:24;10.90;;;5.87;;
25609;SDS011;13479;49.044;8.716;2022-12-07T09:40:51;10.23;;;5.73;;
25609;SDS011;13479;49.044;8.716;2022-12-07T09:43:17;11.57;;;5.90;;
25609;SDS011;13479;49.044;8.716;2022-12-07T09:45:45;11.43;;;5.90;;
25609;SDS011;13479;49.044;8.716;2022-12-07T09:48:16;11.50;;;6.33;;
25609;SDS011;13479;49.044;8.716;2022-12-07T09:50:47;12.03;;;5.50;;
25609;SDS011;13479;49.044;8.716;2022-12-07T09:53:21;8.77;;;4.80;;
25609;SDS011;13479;49.044;8.716;2022-12-07T09:55:50;8.70;;;4.87;;
25609;SDS011;13479;49.044;8.716;2022-12-07T09:58:20;9.60;;;4.97;;
25609;SDS011;13479;49.044;8.716;2022-12-07T10:00:49;8.93;;;5.07;;
25609;SDS011;13479;49.044;8.716;2022-12-07T10:03:18;9.87;;;5.50;;
25609;SDS011;13479;49.044;8.716;2022-12-07T10:05:47;8.67;;;5.20;;
25609;SDS011;13479;49.044;8.716;2022-12-07T10:08:15;8.23;;;5.20;;
25609;SDS011;13479;49.044;8.716;2022-12-07T10:10:42;9.57;;;5.10;;
25609;SDS011;13479;49.044;8.716;2022-12-07T10:15:46;9.33;;;5.00;;
25609;SDS011;13479;49.044;8.716;2022-12-07T10:18:19;9.73;;;5.03;;
25609;SDS011;13479;49.044;8.716;2022-12-07T10:21:14;10.63;;;5.93;;
25609;SDS011;13479;49.044;8.716;2022-12-07T10:29:20;10.53;;;5.47;;
25609;SDS011;13479;49.044;8.716;2022-12-07T10:31:57;12.47;;;6.33;;
25609;SDS011;13479;49.044;8.716;2022-12-07T10:34:25;12.03;;;6.57;;
25609;SDS011;13479;49.044;8.716;2022-12-07T10:36:54;12.07;;;7.10;;
25609;SDS011;13479;49.044;8.716;2022-12-07T10:42:16;11.33;;;6.90;;
25609;SDS011;13479;49.044;8.716;2022-12-07T10:44:43;14.27;;;6.97;;
25609;SDS011;13479;49.044;8.716;2022-12-07T10:47:13;13.17;;;7.17;;
25609;SDS011;13479;49.044;8.716;2022-12-07T10:49:59;12.20;;;6.97;;
25609;SDS011;13479;49.044;8.716;2022-12-07T10:55:23;11.87;;;6.70;;
25609;SDS011;13479;49.044;8.716;2022-12-07T10:58:04;13.97;;;7.53;;
25609;SDS011;13479;49.044;8.716;2022-12-07T11:09:23;13.17;;;7.37;;
25609;SDS011;13479;49.044;8.716;2022-12-07T11:12:21;13.87;;;6.67;;
25609;SDS011;13479;49.044;8.716;2022-12-07T11:15:17;13.20;;;6.23;;
25609;SDS011;13479;49.044;8.716;2022-12-07T11:24:04;14.73;;;7.50;;
25609;SDS011;13479;49.044;8.716;2022-12-07T11:26:55;14.97;;;7.17;;
25609;SDS011;13479;49.044;8.716;2022-12-07T11:34:56;13.73;;;7.00;;
25609;SDS011;13479;49.044;8.716;2022-12-07T11:37:33;11.43;;;6.80;;
25609;SDS011;13479;49.044;8.716;2022-12-07T11:40:02;12.17;;;7.27;;
25609;SDS011;13479;49.044;8.716;2022-12-07T11:42:51;16.80;;;8.13;;
25609;SDS011;13479;49.044;8.716;2022-12-07T11:45:27;14.30;;;8.10;;
25609;SDS011;13479;49.044;8.716;2022-12-07T11:53:51;22.60;;;11.00;;
25609;SDS011;13479;49.044;8.716;2022-12-07T11:56:23;15.43;;;8.07;;
25609;SDS011;13479;49.044;8.716;2022-12-07T11:58:59;15.40;;;7.87;;
25609;SDS011;13479;49.044;8.716;2022-12-07T12:06:42;11.83;;;6.80;;
25609;SDS011;13479;49.044;8.716;2022-12-07T12:09:17;13.63;;;7.43;;
25609;SDS011;13479;49.044;8.716;2022-12-07T12:18:17;14.47;;;7.07;;
25609;SDS011;13479;49.044;8.716;2022-12-07T12:20:32;15.23;;;7.43;;
25609;SDS011;13479;49.044;8.716;2022-12-07T12:23:07;13.40;;;6.03;;
25609;SDS011;13479;49.044;8.716;2022-12-07T12:25:58;13.17;;;7.40;;
25609;SDS011;13479;49.044;8.716;2022-12-07T12:31:06;13.03;;;7.33;;
25609;SDS011;13479;49.044;8.716;2022-12-07T12:33:43;14.10;;;7.77;;
25609;SDS011;13479;49.044;8.716;2022-12-07T12:36:28;13.73;;;7.83;;
25609;SDS011;13479;49.044;8.716;2022-12-07T12:57:05;15.90;;;8.77;;
25609;SDS011;13479;49.044;8.716;2022-12-07T13:02:21;17.57;;;8.17;;
25609;SDS011;13479;49.044;8.716;2022-12-07T13:05:02;14.93;;;8.03;;
25609;SDS011;13479;49.044;8.716;2022-12-07T13:15:41;15.95;;;8.93;;
25609;SDS011;13479;49.044;8.716;2022-12-07T13:18:23;15.53;;;8.00;;
25609;SDS011;13479;49.044;8.716;2022-12-07T13:23:21;17.07;;;8.63;;
25609;SDS011;13479;49.044;8.716;2022-12-07T13:26:12;13.57;;;7.63;;
25609;SDS011;13479;49.044;8.716;2022-12-07T13:31:23;14.87;;;8.67;;
25609;SDS011;13479;49.044;8.716;2022-12-07T13:33:56;13.87;;;8.07;;
25609;SDS011;13479;49.044;8.716;2022-12-07T13:36:26;16.47;;;8.73;;
25609;SDS011;13479;49.044;8.716;2022-12-07T13:38:57;17.67;;;9.10;;
25609;SDS011;13479;49.044;8.716;2022-12-07T13:41:27;14.97;;;8.30;;
25609;SDS011;13479;49.044;8.716;2022-12-07T13:43:58;14.57;;;8.17;;
25609;SDS011;13479;49.044;8.716;2022-12-07T13:46:32;17.70;;;8.23;;
25609;SDS011;13479;49.044;8.716;2022-12-07T13:49:15;15.67;;;8.70;;
25609;SDS011;13479;49.044;8.716;2022-12-07T13:51:43;16.73;;;8.60;;
25609;SDS011;13479;49.044;8.716;2022-12-07T13:54:09;16.37;;;8.50;;
25609;SDS011;13479;49.044;8.716;2022-12-07T13:56:36;18.17;;;8.33;;
25609;SDS011;13479;49.044;8.716;2022-12-07T13:59:02;15.47;;;8.33;;
25609;SDS011;13479;49.044;8.716;2022-12-07T14:01:28;13.87;;;7.93;;
25609;SDS011;13479;49.044;8.716;2022-12-07T14:04:15;14.60;;;8.13;;
25609;SDS011;13479;49.044;8.716;2022-12-07T14:06:58;19.53;;;9.03;;
25609;SDS011;13479;49.044;8.716;2022-12-07T14:09:26;15.60;;;8.83;;
25609;SDS011;13479;49.044;8.716;2022-12-07T14:11:53;14.93;;;8.70;;
25609;SDS011;13479;49.044;8.716;2022-12-07T14:14:22;17.43;;;8.83;;
25609;SDS011;13479;49.044;8.716;2022-12-07T14:16:59;17.53;;;8.73;;
25609;SDS011;13479;49.044;8.716;2022-12-07T14:19:41;17.07;;;8.57;;
25609;SDS011;13479;49.044;8.716;2022-12-07T14:22:15;15.03;;;8.50;;
25609;SDS011;13479;49.044;8.716;2022-12-07T14:24:45;17.30;;;9.73;;
25609;SDS011;13479;49.044;8.716;2022-12-07T14:27:23;18.10;;;9.50;;
25609;SDS011;13479;49.044;8.716;2022-12-07T14:29:55;17.20;;;8.90;;
25609;SDS011;13479;49.044;8.716;2022-12-07T14:32:22;18.23;;;9.20;;
25609;SDS011;13479;49.044;8.716;2022-12-07T14:37:26;16.60;;;9.47;;
25609;SDS011;13479;49.044;8.716;2022-12-07T14:39:52;17.33;;;9.93;;
25609;SDS011;13479;49.044;8.716;2022-12-07T14:42:18;17.43;;;9.93;;
25609;SDS011;13479;49.044;8.716;2022-12-07T14:44:44;18.13;;;9.80;;
25609;SDS011;13479;49.044;8.716;2022-12-07T14:47:10;17.07;;;9.50;;
25609;SDS011;13479;49.044;8.716;2022-12-07T14:49:35;17.37;;;9.13;;
25609;SDS011;13479;49.044;8.716;2022-12-07T14:52:01;15.27;;;8.87;;
25609;SDS011;13479;49.044;8.716;2022-12-07T14:54:26;17.80;;;9.63;;
25609;SDS011;13479;49.044;8.716;2022-12-07T14:56:55;18.07;;;9.67;;
25609;SDS011;13479;49.044;8.716;2022-12-07T14:59:21;15.77;;;9.03;;
25609;SDS011;13479;49.044;8.716;2022-12-07T15:01:46;16.37;;;8.93;;
25609;SDS011;13479;49.044;8.716;2022-12-07T15:04:11;15.67;;;8.80;;
25609;SDS011;13479;49.044;8.716;2022-12-07T15:06:37;16.43;;;8.80;;
25609;SDS011;13479;49.044;8.716;2022-12-07T15:09:02;17.00;;;8.90;;
25609;SDS011;13479;49.044;8.716;2022-12-07T15:11:28;16.23;;;9.03;;
25609;SDS011;13479;49.044;8.716;2022-12-07T15:13:54;18.80;;;9.37;;
25609;SDS011;13479;49.044;8.716;2022-12-07T15:16:36;18.63;;;9.83;;
25609;SDS011;13479;49.044;8.716;2022-12-07T15:19:02;20.80;;;9.40;;
25609;SDS011;13479;49.044;8.716;2022-12-07T15:21:28;17.70;;;10.10;;
25609;SDS011;13479;49.044;8.716;2022-12-07T15:23:53;16.80;;;9.30;;
25609;SDS011;13479;49.044;8.716;2022-12-07T15:26:18;16.23;;;9.10;;
25609;SDS011;13479;49.044;8.716;2022-12-07T15:28:44;18.10;;;9.20;;
25609;SDS011;13479;49.044;8.716;2022-12-07T15:31:12;16.13;;;8.73;;
25609;SDS011;13479;49.044;8.716;2022-12-07T15:33:41;15.60;;;8.43;;
25609;SDS011;13479;49.044;8.716;2022-12-07T15:36:08;16.37;;;8.87;;
25609;SDS011;13479;49.044;8.716;2022-12-07T15:38:42;15.33;;;9.30;;
25609;SDS011;13479;49.044;8.716;2022-12-07T15:41:08;17.57;;;9.80;;
25609;SDS011;13479;49.044;8.716;2022-12-07T15:43:33;15.57;;;8.60;;
25609;SDS011;13479;49.044;8.716;2022-12-07T15:46:17;17.90;;;10.27;;
25609;SDS011;13479;49.044;8.716;2022-12-07T15:48:42;16.87;;;9.20;;
25609;SDS011;13479;49.044;8.716;2022-12-07T15:51:08;18.80;;;9.90;;
25609;SDS011;13479;49.044;8.716;2022-12-07T15:53:34;17.00;;;8.80;;
25609;SDS011;13479;49.044;8.716;2022-12-07T15:56:00;18.20;;;10.50;;
25609;SDS011;13479;49.044;8.716;2022-12-07T15:58:25;17.03;;;9.00;;
25609;SDS011;13479;49.044;8.716;2022-12-07T16:00:50;17.17;;;9.60;;
25609;SDS011;13479;49.044;8.716;2022-12-07T16:03:16;18.90;;;9.63;;
25609;SDS011;13479;49.044;8.716;2022-12-07T16:05:41;20.33;;;9.83;;
25609;SDS011;13479;49.044;8.716;2022-12-07T16:08:06;18.10;;;9.43;;
25609;SDS011;13479;49.044;8.716;2022-12-07T16:10:31;16.37;;;8.90;;
25609;SDS011;13479;49.044;8.716;2022-12-07T16:12:57;17.23;;;9.93;;
25609;SDS011;13479;49.044;8.716;2022-12-07T16:15:22;16.57;;;9.70;;
25609;SDS011;13479;49.044;8.716;2022-12-07T16:17:49;16.43;;;9.47;;
25609;SDS011;13479;49.044;8.716;2022-12-07T16:20:15;17.27;;;9.90;;
25609;SDS011;13479;49.044;8.716;2022-12-07T16:22:40;20.37;;;10.37;;
25609;SDS011;13479;49.044;8.716;2022-12-07T16:25:05;17.50;;;10.07;;
25609;SDS011;13479;49.044;8.716;2022-12-07T16:27:31;19.23;;;10.80;;
25609;SDS011;13479;49.044;8.716;2022-12-07T16:29:56;18.80;;;9.73;;
25609;SDS011;13479;49.044;8.716;2022-12-07T16:32:21;19.00;;;10.60;;
25609;SDS011;13479;49.044;8.716;2022-12-07T16:34:47;17.70;;;9.97;;
25609;SDS011;13479;49.044;8.716;2022-12-07T16:37:12;18.70;;;10.80;;
25609;SDS011;13479;49.044;8.716;2022-12-07T16:39:37;15.60;;;9.33;;
25609;SDS011;13479;49.044;8.716;2022-12-07T16:42:02;20.23;;;10.17;;
25609;SDS011;13479;49.044;8.716;2022-12-07T16:44:27;17.83;;;10.10;;
25609;SDS011;13479;49.044;8.716;2022-12-07T16:46:53;18.07;;;10.27;;
25609;SDS011;13479;49.044;8.716;2022-12-07T16:49:18;18.87;;;10.17;;
25609;SDS011;13479;49.044;8.716;2022-12-07T16:51:44;18.33;;;10.23;;
25609;SDS011;13479;49.044;8.716;2022-12-07T16:54:11;17.53;;;9.00;;
25609;SDS011;13479;49.044;8.716;2022-12-07T16:56:37;16.70;;;9.17;;
25609;SDS011;13479;49.044;8.716;2022-12-07T16:59:02;20.63;;;10.67;;
25609;SDS011;13479;49.044;8.716;2022-12-07T17:01:28;18.80;;;10.13;;
25609;SDS011;13479;49.044;8.716;2022-12-07T17:03:54;18.23;;;9.57;;
25609;SDS011;13479;49.044;8.716;2022-12-07T17:06:20;19.87;;;10.33;;
25609;SDS011;13479;49.044;8.716;2022-12-07T17:08:48;15.80;;;9.50;;
25609;SDS011;13479;49.044;8.716;2022-12-07T17:11:15;17.27;;;9.57;;
25609;SDS011;13479;49.044;8.716;2022-12-07T17:13:43;18.87;;;9.03;;
25609;SDS011;13479;49.044;8.716;2022-12-07T17:16:27;17.87;;;10.00;;
25609;SDS011;13479;49.044;8.716;2022-12-07T17:18:53;16.83;;;9.27;;
25609;SDS011;13479;49.044;8.716;2022-12-07T17:21:18;17.00;;;9.37;;
25609;SDS011;13479;49.044;8.716;2022-12-07T17:23:44;16.63;;;8.93;;
25609;SDS011;13479;49.044;8.716;2022-12-07T17:26:14;17.30;;;9.23;;
25609;SDS011;13479;49.044;8.716;2022-12-07T17:28:41;14.97;;;8.70;;
25609;SDS011;13479;49.044;8.716;2022-12-07T17:31:08;16.23;;;8.67;;
25609;SDS011;13479;49.044;8.716;2022-12-07T17:33:35;14.17;;;8.03;;
25609;SDS011;13479;49.044;8.716;2022-12-07T17:36:00;16.63;;;8.57;;
25609;SDS011;13479;49.044;8.716;2022-12-07T17:38:27;13.60;;;7.60;;
25609;SDS011;13479;49.044;8.716;2022-12-07T17:40:53;16.23;;;8.77;;
25609;SDS011;13479;49.044;8.716;2022-12-07T17:43:18;14.47;;;8.23;;
25609;SDS011;13479;49.044;8.716;2022-12-07T17:45:43;16.23;;;8.10;;
25609;SDS011;13479;49.044;8.716;2022-12-07T17:48:09;14.70;;;8.00;;
25609;SDS011;13479;49.044;8.716;2022-12-07T17:50:34;12.87;;;7.10;;
25609;SDS011;13479;49.044;8.716;2022-12-07T17:53:18;16.63;;;8.30;;
25609;SDS011;13479;49.044;8.716;2022-12-07T17:55:43;15.17;;;7.53;;
25609;SDS011;13479;49.044;8.716;2022-12-07T17:58:09;13.53;;;8.00;;
25609;SDS011;13479;49.044;8.716;2022-12-07T18:00:34;15.70;;;8.00;;
25609;SDS011;13479;49.044;8.716;2022-12-07T18:03:05;15.50;;;8.20;;
25609;SDS011;13479;49.044;8.716;2022-12-07T18:05:33;12.40;;;7.33;;
25609;SDS011;13479;49.044;8.716;2022-12-07T18:07:58;13.20;;;7.40;;
25609;SDS011;13479;49.044;8.716;2022-12-07T18:10:23;14.43;;;7.63;;
25609;SDS011;13479;49.044;8.716;2022-12-07T18:12:48;15.87;;;8.53;;
25609;SDS011;13479;49.044;8.716;2022-12-07T18:15:14;14.17;;;7.60;;
25609;SDS011;13479;49.044;8.716;2022-12-07T18:17:40;14.43;;;8.20;;
25609;SDS011;13479;49.044;8.716;2022-12-07T18:20:06;14.87;;;7.20;;
25609;SDS011;13479;49.044;8.716;2022-12-07T18:22:32;15.10;;;8.33;;
25609;SDS011;13479;49.044;8.716;2022-12-07T18:24:57;14.37;;;7.83;;
25609;SDS011;13479;49.044;8.716;2022-12-07T18:27:22;14.40;;;8.40;;
25609;SDS011;13479;49.044;8.716;2022-12-07T18:29:47;16.47;;;8.90;;
25609;SDS011;13479;49.044;8.716;2022-12-07T18:32:13;15.30;;;8.23;;
25609;SDS011;13479;49.044;8.716;2022-12-07T18:34:38;17.10;;;9.03;;
25609;SDS011;13479;49.044;8.716;2022-12-07T18:37:05;16.30;;;8.70;;
25609;SDS011;13479;49.044;8.716;2022-12-07T18:39:30;18.77;;;10.50;;
25609;SDS011;13479;49.044;8.716;2022-12-07T18:41:55;20.47;;;10.07;;
25609;SDS011;13479;49.044;8.716;2022-12-07T18:44:21;21.40;;;10.13;;
25609;SDS011;13479;49.044;8.716;2022-12-07T18:46:46;22.20;;;11.40;;
25609;SDS011;13479;49.044;8.716;2022-12-07T18:49:12;53.97;;;29.43;;
25609;SDS011;13479;49.044;8.716;2022-12-07T18:51:38;21.13;;;11.93;;
25609;SDS011;13479;49.044;8.716;2022-12-07T18:54:03;24.40;;;13.10;;
25609;SDS011;13479;49.044;8.716;2022-12-07T18:56:29;24.00;;;13.07;;
25609;SDS011;13479;49.044;8.716;2022-12-07T18:58:56;22.83;;;11.87;;
25609;SDS011;13479;49.044;8.716;2022-12-07T19:01:42;20.63;;;10.70;;
25609;SDS011;13479;49.044;8.716;2022-12-07T19:04:09;20.00;;;10.77;;
25609;SDS011;13479;49.044;8.716;2022-12-07T19:06:34;21.50;;;12.60;;
25609;SDS011;13479;49.044;8.716;2022-12-07T19:09:00;19.77;;;11.20;;
25609;SDS011;13479;49.044;8.716;2022-12-07T19:11:27;21.63;;;11.20;;
25609;SDS011;13479;49.044;8.716;2022-12-07T19:14:13;20.60;;;11.03;;
25609;SDS011;13479;49.044;8.716;2022-12-07T19:16:50;25.00;;;12.07;;
25609;SDS011;13479;49.044;8.716;2022-12-07T19:19:18;25.67;;;15.43;;
25609;SDS011;13479;49.044;8.716;2022-12-07T19:21:45;30.47;;;18.23;;
25609;SDS011;13479;49.044;8.716;2022-12-07T19:24:10;28.30;;;14.93;;
25609;SDS011;13479;49.044;8.716;2022-12-07T19:26:36;19.80;;;11.17;;
25609;SDS011;13479;49.044;8.716;2022-12-07T19:29:02;21.30;;;11.10;;
25609;SDS011;13479;49.044;8.716;2022-12-07T19:31:27;22.53;;;13.37;;
25609;SDS011;13479;49.044;8.716;2022-12-07T19:33:53;19.87;;;11.70;;
25609;SDS011;13479;49.044;8.716;2022-12-07T19:36:18;22.73;;;12.03;;
25609;SDS011;13479;49.044;8.716;2022-12-07T19:38:43;25.67;;;14.73;;
25609;SDS011;13479;49.044;8.716;2022-12-07T19:41:09;22.90;;;13.37;;
25609;SDS011;13479;49.044;8.716;2022-12-07T19:43:56;20.93;;;10.93;;
25609;SDS011;13479;49.044;8.716;2022-12-07T19:46:22;25.03;;;12.53;;
25609;SDS011;13479;49.044;8.716;2022-12-07T19:48:49;28.17;;;15.73;;
25609;SDS011;13479;49.044;8.716;2022-12-07T19:51:14;59.30;;;34.70;;
25609;SDS011;13479;49.044;8.716;2022-12-07T19:53:39;31.33;;;17.57;;
25609;SDS011;13479;49.044;8.716;2022-12-07T19:56:05;32.47;;;17.20;;
25609;SDS011;13479;49.044;8.716;2022-12-07T19:58:30;48.67;;;26.20;;
25609;SDS011;13479;49.044;8.716;2022-12-07T20:01:01;26.50;;;15.70;;
25609;SDS011;13479;49.044;8.716;2022-12-07T20:03:27;21.83;;;12.47;;
25609;SDS011;13479;49.044;8.716;2022-12-07T20:05:52;24.17;;;12.17;;
25609;SDS011;13479;49.044;8.716;2022-12-07T20:08:17;22.33;;;11.77;;
25609;SDS011;13479;49.044;8.716;2022-12-07T20:10:43;23.07;;;11.80;;
25609;SDS011;13479;49.044;8.716;2022-12-07T20:13:08;23.40;;;11.93;;
25609;SDS011;13479;49.044;8.716;2022-12-07T20:15:52;23.30;;;11.60;;
25609;SDS011;13479;49.044;8.716;2022-12-07T20:18:18;21.03;;;11.63;;
25609;SDS011;13479;49.044;8.716;2022-12-07T20:20:51;20.77;;;11.33;;
25609;SDS011;13479;49.044;8.716;2022-12-07T20:23:21;22.70;;;11.00;;
25609;SDS011;13479;49.044;8.716;2022-12-07T20:25:50;22.20;;;11.33;;
25609;SDS011;13479;49.044;8.716;2022-12-07T20:28:16;23.97;;;12.13;;
25609;SDS011;13479;49.044;8.716;2022-12-07T20:30:47;27.70;;;13.80;;
25609;SDS011;13479;49.044;8.716;2022-12-07T20:33:14;27.93;;;13.90;;
25609;SDS011;13479;49.044;8.716;2022-12-07T20:35:39;27.87;;;14.17;;
25609;SDS011;13479;49.044;8.716;2022-12-07T20:38:05;27.17;;;14.03;;
25609;SDS011;13479;49.044;8.716;2022-12-07T20:40:30;30.73;;;14.17;;
25609;SDS011;13479;49.044;8.716;2022-12-07T20:42:56;31.40;;;15.80;;
25609;SDS011;13479;49.044;8.716;2022-12-07T20:45:21;33.87;;;17.00;;
25609;SDS011;13479;49.044;8.716;2022-12-07T20:47:46;40.50;;;19.47;;
25609;SDS011;13479;49.044;8.716;2022-12-07T20:50:12;35.07;;;17.57;;
25609;SDS011;13479;49.044;8.716;2022-12-07T20:52:37;34.73;;;17.83;;
25609;SDS011;13479;49.044;8.716;2022-12-07T20:55:03;29.83;;;15.43;;
25609;SDS011;13479;49.044;8.716;2022-12-07T20:57:28;27.37;;;13.30;;
25609;SDS011;13479;49.044;8.716;2022-12-07T20:59:54;26.70;;;14.97;;
25609;SDS011;13479;49.044;8.716;2022-12-07T21:02:19;34.00;;;16.30;;
25609;SDS011;13479;49.044;8.716;2022-12-07T21:04:44;32.80;;;15.07;;
25609;SDS011;13479;49.044;8.716;2022-12-07T21:07:10;29.17;;;15.03;;
25609;SDS011;13479;49.044;8.716;2022-12-07T21:09:35;28.47;;;13.90;;